Overview Statistics Trail Chart Weather Telemetry Raw packets
 

This is the latest recevied weather packets stored in our database for station/object KF7SOJ. If no packets are shown the sender has not sent any weather packets the latest 10 day(s).

<< 66 67 68 69 70 71 72 >>
Time Temp. Humidity Pressure Rain* Wind** Luminosity Snow
1788148513 17.78° C 38% 930.3 hPa 0 mm - 0 W/m² -
1788148209 18.33° C 37% 930.3 hPa 0 mm - 0 W/m² -
1788147903 18.89° C 36% 930.2 hPa 0 mm - 0 W/m² -
1788147599 18.33° C 36% 930.2 hPa 0 mm - 0 W/m² -
1788147294 17.78° C 37% 930 hPa 0 mm - 0 W/m² -
1788146989 17.22° C 41% 930.1 hPa 0 mm - 0 W/m² -
1788146683 17.22° C 42% 930.1 hPa 0 mm - 0 W/m² -
1788146379 17.22° C 43% 929.9 hPa 0 mm - 0 W/m² -
1788146072 17.78° C 39% 930 hPa 0 mm - 0 W/m² -
1788145771 18.33° C 37% 929.7 hPa 0 mm - 0 W/m² -
1788145471 18.33° C 34% 929.7 hPa 0 mm - 0 W/m² -
1788145169 18.89° C 35% 929.8 hPa 0 mm - 0 W/m² -
1788144869 18.89° C 36% 929.7 hPa 0 mm - 0 W/m² -
1788144565 18.33° C 38% 929.7 hPa 0 mm - 0 W/m² -
1788144265 18.33° C 38% 929.7 hPa 0 mm - 0 W/m² -
1788143965 18.33° C 39% 929.7 hPa 0 mm - 0 W/m² -
1788143663 17.78° C 40% 929.6 hPa 0 mm - 0 W/m² -
1788143358 17.78° C 42% 929.6 hPa 0 mm - 0 W/m² -
1788143057 17.78° C 43% 929.4 hPa 0 mm - 0 W/m² -
1788142752 17.78° C 44% 929.4 hPa 0 mm - 0 W/m² -
1788142451 18.33° C 39% 929.3 hPa 0 mm - 0 W/m² -
1788142148 18.33° C 40% 929.2 hPa 0 mm - 1 W/m² -
1788141847 18.89° C 39% 929.1 hPa 0 mm - 2 W/m² -
1788141542 19.44° C 38% 929.1 hPa 0 mm - 3 W/m² -
1788141239 19.44° C 38% 929 hPa 0 mm - 6 W/m² -

* Rain latest hour (hover to see other rain measurements)
** Current wind speed in m/s (hover to see current wind gust speed)